sensor_id;sensor_type;location;lat;lon;timestamp;P1;durP1;ratioP1;P2;durP2;ratioP2
50543;SDS011;41176;44.032;20.900;2022-11-25T00:01:30;2.10;;;1.20;;
50543;SDS011;41176;44.032;20.900;2022-11-25T00:03:57;1.83;;;1.08;;
50543;SDS011;41176;44.032;20.900;2022-11-25T00:06:24;1.63;;;1.15;;
50543;SDS011;41176;44.032;20.900;2022-11-25T00:08:53;0.60;;;0.32;;
50543;SDS011;41176;44.032;20.900;2022-11-25T00:11:20;2.05;;;1.08;;
50543;SDS011;41176;44.032;20.900;2022-11-25T00:13:46;1.38;;;0.77;;
50543;SDS011;41176;44.032;20.900;2022-11-25T00:16:13;1.33;;;1.23;;
50543;SDS011;41176;44.032;20.900;2022-11-25T00:18:45;3.25;;;1.20;;
50543;SDS011;41176;44.032;20.900;2022-11-25T00:21:14;2.00;;;1.13;;
50543;SDS011;41176;44.032;20.900;2022-11-25T00:23:41;1.33;;;1.05;;
50543;SDS011;41176;44.032;20.900;2022-11-25T00:26:08;2.85;;;1.30;;
50543;SDS011;41176;44.032;20.900;2022-11-25T00:28:38;2.25;;;1.00;;
50543;SDS011;41176;44.032;20.900;2022-11-25T00:33:32;1.38;;;0.80;;
50543;SDS011;41176;44.032;20.900;2022-11-25T00:36:01;1.20;;;0.60;;
50543;SDS011;41176;44.032;20.900;2022-11-25T00:38:31;1.50;;;0.68;;
50543;SDS011;41176;44.032;20.900;2022-11-25T00:40:56;0.73;;;0.52;;
50543;SDS011;41176;44.032;20.900;2022-11-25T00:43:41;0.50;;;0.50;;
50543;SDS011;41176;44.032;20.900;2022-11-25T00:46:26;0.93;;;0.63;;
50543;SDS011;41176;44.032;20.900;2022-11-25T00:48:51;0.82;;;0.63;;
50543;SDS011;41176;44.032;20.900;2022-11-25T00:51:17;1.52;;;0.93;;
50543;SDS011;41176;44.032;20.900;2022-11-25T00:53:43;0.38;;;0.20;;
50543;SDS011;41176;44.032;20.900;2022-11-25T00:56:09;1.88;;;1.10;;
50543;SDS011;41176;44.032;20.900;2022-11-25T00:58:38;0.95;;;0.65;;
50543;SDS011;41176;44.032;20.900;2022-11-25T01:01:04;1.27;;;1.05;;
50543;SDS011;41176;44.032;20.900;2022-11-25T01:03:30;0.75;;;0.60;;
50543;SDS011;41176;44.032;20.900;2022-11-25T01:05:59;3.40;;;1.55;;
50543;SDS011;41176;44.032;20.900;2022-11-25T01:08:29;1.20;;;0.65;;
50543;SDS011;41176;44.032;20.900;2022-11-25T01:10:59;0.88;;;0.63;;
50543;SDS011;41176;44.032;20.900;2022-11-25T01:13:29;0.70;;;0.35;;
50543;SDS011;41176;44.032;20.900;2022-11-25T01:15:55;1.25;;;0.77;;
50543;SDS011;41176;44.032;20.900;2022-11-25T01:18:21;2.58;;;1.00;;
50543;SDS011;41176;44.032;20.900;2022-11-25T01:20:47;5.32;;;1.38;;
50543;SDS011;41176;44.032;20.900;2022-11-25T01:23:13;1.88;;;1.10;;
50543;SDS011;41176;44.032;20.900;2022-11-25T01:25:38;2.28;;;1.45;;
50543;SDS011;41176;44.032;20.900;2022-11-25T01:28:04;1.13;;;0.85;;
50543;SDS011;41176;44.032;20.900;2022-11-25T01:30:31;2.53;;;0.65;;
50543;SDS011;41176;44.032;20.900;2022-11-25T01:32:57;1.25;;;0.82;;
50543;SDS011;41176;44.032;20.900;2022-11-25T01:35:23;2.88;;;1.48;;
50543;SDS011;41176;44.032;20.900;2022-11-25T01:37:48;1.05;;;0.73;;
50543;SDS011;41176;44.032;20.900;2022-11-25T01:40:14;2.85;;;1.92;;
50543;SDS011;41176;44.032;20.900;2022-11-25T01:42:44;1.75;;;0.98;;
50543;SDS011;41176;44.032;20.900;2022-11-25T01:48:01;2.08;;;1.13;;
50543;SDS011;41176;44.032;20.900;2022-11-25T01:50:40;1.40;;;0.47;;
50543;SDS011;41176;44.032;20.900;2022-11-25T01:53:07;2.97;;;1.30;;
50543;SDS011;41176;44.032;20.900;2022-11-25T01:55:35;1.75;;;1.00;;
50543;SDS011;41176;44.032;20.900;2022-11-25T01:58:07;0.95;;;0.68;;
50543;SDS011;41176;44.032;20.900;2022-11-25T02:00:35;1.75;;;0.55;;
50543;SDS011;41176;44.032;20.900;2022-11-25T02:03:02;1.48;;;1.00;;
50543;SDS011;41176;44.032;20.900;2022-11-25T02:05:34;2.20;;;1.02;;
50543;SDS011;41176;44.032;20.900;2022-11-25T02:08:00;1.27;;;0.90;;
50543;SDS011;41176;44.032;20.900;2022-11-25T02:10:28;1.25;;;0.98;;
50543;SDS011;41176;44.032;20.900;2022-11-25T02:12:56;1.13;;;0.75;;
50543;SDS011;41176;44.032;20.900;2022-11-25T02:15:23;1.30;;;0.85;;
50543;SDS011;41176;44.032;20.900;2022-11-25T02:17:49;1.60;;;1.10;;
50543;SDS011;41176;44.032;20.900;2022-11-25T02:20:16;1.65;;;0.57;;
50543;SDS011;41176;44.032;20.900;2022-11-25T02:25:41;1.70;;;1.17;;
50543;SDS011;41176;44.032;20.900;2022-11-25T02:28:12;1.05;;;0.55;;
50543;SDS011;41176;44.032;20.900;2022-11-25T02:30:41;1.42;;;1.05;;
50543;SDS011;41176;44.032;20.900;2022-11-25T02:33:07;1.00;;;0.70;;
50543;SDS011;41176;44.032;20.900;2022-11-25T02:35:34;1.20;;;0.88;;
50543;SDS011;41176;44.032;20.900;2022-11-25T02:38:08;2.53;;;0.98;;
50543;SDS011;41176;44.032;20.900;2022-11-25T02:40:36;1.13;;;0.95;;
50543;SDS011;41176;44.032;20.900;2022-11-25T02:43:06;1.75;;;1.05;;
50543;SDS011;41176;44.032;20.900;2022-11-25T02:45:42;2.97;;;1.88;;
50543;SDS011;41176;44.032;20.900;2022-11-25T02:48:27;1.45;;;1.17;;
50543;SDS011;41176;44.032;20.900;2022-11-25T02:50:54;1.80;;;0.90;;
50543;SDS011;41176;44.032;20.900;2022-11-25T02:53:20;1.70;;;0.80;;
50543;SDS011;41176;44.032;20.900;2022-11-25T02:55:46;0.70;;;0.40;;
50543;SDS011;41176;44.032;20.900;2022-11-25T02:58:13;4.78;;;1.90;;
50543;SDS011;41176;44.032;20.900;2022-11-25T03:00:39;2.38;;;1.15;;
50543;SDS011;41176;44.032;20.900;2022-11-25T03:03:05;3.08;;;1.00;;
50543;SDS011;41176;44.032;20.900;2022-11-25T03:05:31;1.20;;;0.63;;
50543;SDS011;41176;44.032;20.900;2022-11-25T03:07:56;2.10;;;1.40;;
50543;SDS011;41176;44.032;20.900;2022-11-25T03:10:22;2.65;;;1.13;;
50543;SDS011;41176;44.032;20.900;2022-11-25T03:12:48;1.48;;;0.77;;
50543;SDS011;41176;44.032;20.900;2022-11-25T03:15:14;1.00;;;0.65;;
50543;SDS011;41176;44.032;20.900;2022-11-25T03:17:40;4.75;;;2.10;;
50543;SDS011;41176;44.032;20.900;2022-11-25T03:20:06;1.48;;;0.80;;
50543;SDS011;41176;44.032;20.900;2022-11-25T03:22:33;0.95;;;0.55;;
50543;SDS011;41176;44.032;20.900;2022-11-25T03:24:59;1.63;;;0.80;;
50543;SDS011;41176;44.032;20.900;2022-11-25T03:27:24;1.77;;;0.70;;
50543;SDS011;41176;44.032;20.900;2022-11-25T03:29:50;1.05;;;0.70;;
50543;SDS011;41176;44.032;20.900;2022-11-25T03:32:16;1.50;;;0.95;;
50543;SDS011;41176;44.032;20.900;2022-11-25T03:34:42;1.08;;;0.60;;
50543;SDS011;41176;44.032;20.900;2022-11-25T03:37:07;1.92;;;0.93;;
50543;SDS011;41176;44.032;20.900;2022-11-25T03:39:33;3.05;;;1.25;;
50543;SDS011;41176;44.032;20.900;2022-11-25T03:41:59;0.73;;;0.60;;
50543;SDS011;41176;44.032;20.900;2022-11-25T03:44:25;0.70;;;0.43;;
50543;SDS011;41176;44.032;20.900;2022-11-25T03:46:50;1.52;;;1.00;;
50543;SDS011;41176;44.032;20.900;2022-11-25T03:49:16;1.75;;;0.95;;
50543;SDS011;41176;44.032;20.900;2022-11-25T03:51:42;1.35;;;0.70;;
50543;SDS011;41176;44.032;20.900;2022-11-25T03:54:08;1.17;;;0.93;;
50543;SDS011;41176;44.032;20.900;2022-11-25T03:56:34;1.13;;;0.63;;
50543;SDS011;41176;44.032;20.900;2022-11-25T03:59:00;1.52;;;1.23;;
50543;SDS011;41176;44.032;20.900;2022-11-25T04:01:26;1.23;;;0.85;;
50543;SDS011;41176;44.032;20.900;2022-11-25T04:03:51;1.65;;;1.08;;
50543;SDS011;41176;44.032;20.900;2022-11-25T04:06:17;2.03;;;0.98;;
50543;SDS011;41176;44.032;20.900;2022-11-25T04:08:45;1.02;;;0.93;;
50543;SDS011;41176;44.032;20.900;2022-11-25T04:11:11;1.23;;;0.80;;
50543;SDS011;41176;44.032;20.900;2022-11-25T04:13:37;2.75;;;1.30;;
50543;SDS011;41176;44.032;20.900;2022-11-25T04:16:03;1.27;;;0.80;;
50543;SDS011;41176;44.032;20.900;2022-11-25T04:18:28;2.08;;;1.55;;
50543;SDS011;41176;44.032;20.900;2022-11-25T04:20:54;2.22;;;1.10;;
50543;SDS011;41176;44.032;20.900;2022-11-25T04:23:20;4.40;;;2.10;;
50543;SDS011;41176;44.032;20.900;2022-11-25T04:25:48;1.80;;;1.42;;
50543;SDS011;41176;44.032;20.900;2022-11-25T04:28:14;4.47;;;2.25;;
50543;SDS011;41176;44.032;20.900;2022-11-25T04:30:40;3.72;;;1.60;;
50543;SDS011;41176;44.032;20.900;2022-11-25T04:33:06;3.10;;;1.20;;
50543;SDS011;41176;44.032;20.900;2022-11-25T04:35:32;2.20;;;1.10;;
50543;SDS011;41176;44.032;20.900;2022-11-25T04:37:59;1.63;;;1.08;;
50543;SDS011;41176;44.032;20.900;2022-11-25T04:40:25;2.40;;;1.52;;
50543;SDS011;41176;44.032;20.900;2022-11-25T04:42:50;3.17;;;1.17;;
50543;SDS011;41176;44.032;20.900;2022-11-25T04:45:16;2.33;;;1.35;;
50543;SDS011;41176;44.032;20.900;2022-11-25T04:47:42;2.88;;;1.95;;
50543;SDS011;41176;44.032;20.900;2022-11-25T04:50:12;1.67;;;1.15;;
50543;SDS011;41176;44.032;20.900;2022-11-25T04:52:41;2.58;;;1.45;;
50543;SDS011;41176;44.032;20.900;2022-11-25T04:55:07;2.10;;;1.17;;
50543;SDS011;41176;44.032;20.900;2022-11-25T04:57:33;3.38;;;1.90;;
50543;SDS011;41176;44.032;20.900;2022-11-25T04:59:58;1.17;;;0.90;;
50543;SDS011;41176;44.032;20.900;2022-11-25T05:02:25;1.83;;;1.45;;
50543;SDS011;41176;44.032;20.900;2022-11-25T05:04:52;3.28;;;1.33;;
50543;SDS011;41176;44.032;20.900;2022-11-25T05:07:20;2.70;;;1.52;;
50543;SDS011;41176;44.032;20.900;2022-11-25T05:09:47;2.25;;;0.85;;
50543;SDS011;41176;44.032;20.900;2022-11-25T05:12:14;2.20;;;1.60;;
50543;SDS011;41176;44.032;20.900;2022-11-25T05:14:42;4.28;;;1.50;;
50543;SDS011;41176;44.032;20.900;2022-11-25T05:17:13;0.85;;;0.57;;
50543;SDS011;41176;44.032;20.900;2022-11-25T05:19:41;2.55;;;1.40;;
50543;SDS011;41176;44.032;20.900;2022-11-25T05:22:10;0.95;;;0.63;;
50543;SDS011;41176;44.032;20.900;2022-11-25T05:24:37;2.75;;;1.98;;
50543;SDS011;41176;44.032;20.900;2022-11-25T05:27:03;3.58;;;2.15;;
50543;SDS011;41176;44.032;20.900;2022-11-25T05:29:29;2.60;;;1.67;;
50543;SDS011;41176;44.032;20.900;2022-11-25T05:31:54;3.88;;;2.58;;
50543;SDS011;41176;44.032;20.900;2022-11-25T05:34:20;3.00;;;2.05;;
50543;SDS011;41176;44.032;20.900;2022-11-25T05:36:46;3.08;;;2.10;;
50543;SDS011;41176;44.032;20.900;2022-11-25T05:39:11;4.45;;;1.98;;
50543;SDS011;41176;44.032;20.900;2022-11-25T05:41:37;5.05;;;2.10;;
50543;SDS011;41176;44.032;20.900;2022-11-25T05:44:03;2.10;;;1.38;;
50543;SDS011;41176;44.032;20.900;2022-11-25T05:46:29;4.38;;;2.25;;
50543;SDS011;41176;44.032;20.900;2022-11-25T05:48:55;1.75;;;1.50;;
50543;SDS011;41176;44.032;20.900;2022-11-25T05:51:22;5.80;;;2.55;;
50543;SDS011;41176;44.032;20.900;2022-11-25T05:53:49;3.97;;;2.45;;
50543;SDS011;41176;44.032;20.900;2022-11-25T05:56:15;5.90;;;4.38;;
50543;SDS011;41176;44.032;20.900;2022-11-25T05:58:41;12.07;;;4.53;;
50543;SDS011;41176;44.032;20.900;2022-11-25T06:01:08;8.20;;;6.35;;
50543;SDS011;41176;44.032;20.900;2022-11-25T06:03:34;13.45;;;5.30;;
50543;SDS011;41176;44.032;20.900;2022-11-25T06:06:00;7.22;;;4.97;;
50543;SDS011;41176;44.032;20.900;2022-11-25T06:08:26;9.02;;;4.97;;
50543;SDS011;41176;44.032;20.900;2022-11-25T06:10:53;10.32;;;4.20;;
50543;SDS011;41176;44.032;20.900;2022-11-25T06:13:19;3.90;;;2.00;;
50543;SDS011;41176;44.032;20.900;2022-11-25T06:15:45;5.07;;;2.83;;
50543;SDS011;41176;44.032;20.900;2022-11-25T06:18:12;3.42;;;2.22;;
50543;SDS011;41176;44.032;20.900;2022-11-25T06:20:39;3.28;;;2.30;;
50543;SDS011;41176;44.032;20.900;2022-11-25T06:23:05;5.72;;;3.22;;
50543;SDS011;41176;44.032;20.900;2022-11-25T06:25:31;4.60;;;2.85;;
50543;SDS011;41176;44.032;20.900;2022-11-25T06:27:58;5.88;;;2.88;;
50543;SDS011;41176;44.032;20.900;2022-11-25T06:30:24;3.33;;;1.80;;
50543;SDS011;41176;44.032;20.900;2022-11-25T06:32:50;2.95;;;2.25;;
50543;SDS011;41176;44.032;20.900;2022-11-25T06:35:17;4.47;;;1.90;;
50543;SDS011;41176;44.032;20.900;2022-11-25T06:37:43;3.75;;;2.03;;
50543;SDS011;41176;44.032;20.900;2022-11-25T06:40:09;1.60;;;0.80;;
50543;SDS011;41176;44.032;20.900;2022-11-25T06:42:36;3.60;;;1.42;;
50543;SDS011;41176;44.032;20.900;2022-11-25T06:45:03;2.88;;;1.75;;
50543;SDS011;41176;44.032;20.900;2022-11-25T06:47:30;3.05;;;2.05;;
50543;SDS011;41176;44.032;20.900;2022-11-25T06:49:55;2.40;;;1.70;;
50543;SDS011;41176;44.032;20.900;2022-11-25T06:52:21;6.15;;;2.55;;
50543;SDS011;41176;44.032;20.900;2022-11-25T06:54:47;4.85;;;3.85;;
50543;SDS011;41176;44.032;20.900;2022-11-25T06:57:16;5.90;;;3.67;;
50543;SDS011;41176;44.032;20.900;2022-11-25T06:59:42;7.80;;;3.78;;
50543;SDS011;41176;44.032;20.900;2022-11-25T07:02:09;5.38;;;1.95;;
50543;SDS011;41176;44.032;20.900;2022-11-25T07:04:36;2.60;;;1.33;;
50543;SDS011;41176;44.032;20.900;2022-11-25T07:07:02;7.70;;;1.80;;
50543;SDS011;41176;44.032;20.900;2022-11-25T07:09:29;3.72;;;2.15;;
50543;SDS011;41176;44.032;20.900;2022-11-25T07:11:54;6.43;;;3.42;;
50543;SDS011;41176;44.032;20.900;2022-11-25T07:14:20;4.63;;;2.72;;
50543;SDS011;41176;44.032;20.900;2022-11-25T07:16:46;4.38;;;2.40;;
50543;SDS011;41176;44.032;20.900;2022-11-25T07:19:13;9.65;;;6.55;;
50543;SDS011;41176;44.032;20.900;2022-11-25T07:21:40;7.45;;;4.18;;
50543;SDS011;41176;44.032;20.900;2022-11-25T07:24:08;5.97;;;3.20;;
50543;SDS011;41176;44.032;20.900;2022-11-25T07:26:36;5.47;;;2.85;;
50543;SDS011;41176;44.032;20.900;2022-11-25T07:29:05;2.63;;;1.38;;
50543;SDS011;41176;44.032;20.900;2022-11-25T07:31:35;1.85;;;1.50;;
50543;SDS011;41176;44.032;20.900;2022-11-25T07:34:08;3.00;;;2.38;;
50543;SDS011;41176;44.032;20.900;2022-11-25T07:36:37;2.50;;;1.50;;
50543;SDS011;41176;44.032;20.900;2022-11-25T07:39:05;3.22;;;1.52;;
50543;SDS011;41176;44.032;20.900;2022-11-25T07:41:34;2.65;;;1.20;;
50543;SDS011;41176;44.032;20.900;2022-11-25T07:44:01;3.10;;;2.28;;
50543;SDS011;41176;44.032;20.900;2022-11-25T07:46:30;6.07;;;2.85;;
50543;SDS011;41176;44.032;20.900;2022-11-25T07:48:58;3.33;;;2.08;;
50543;SDS011;41176;44.032;20.900;2022-11-25T07:51:33;3.17;;;1.63;;
50543;SDS011;41176;44.032;20.900;2022-11-25T07:54:01;4.93;;;2.50;;
50543;SDS011;41176;44.032;20.900;2022-11-25T07:56:29;2.78;;;1.75;;
50543;SDS011;41176;44.032;20.900;2022-11-25T07:58:55;6.28;;;3.00;;
50543;SDS011;41176;44.032;20.900;2022-11-25T08:01:21;6.22;;;4.15;;
50543;SDS011;41176;44.032;20.900;2022-11-25T08:03:48;9.23;;;4.15;;
50543;SDS011;41176;44.032;20.900;2022-11-25T08:06:16;6.97;;;3.58;;
50543;SDS011;41176;44.032;20.900;2022-11-25T08:08:44;7.30;;;2.95;;
50543;SDS011;41176;44.032;20.900;2022-11-25T08:11:12;6.43;;;3.40;;
50543;SDS011;41176;44.032;20.900;2022-11-25T08:13:39;6.43;;;3.17;;
50543;SDS011;41176;44.032;20.900;2022-11-25T08:16:05;4.15;;;2.85;;
50543;SDS011;41176;44.032;20.900;2022-11-25T08:18:32;6.15;;;2.63;;
50543;SDS011;41176;44.032;20.900;2022-11-25T08:21:01;3.05;;;1.50;;
50543;SDS011;41176;44.032;20.900;2022-11-25T08:23:29;5.40;;;2.33;;
50543;SDS011;41176;44.032;20.900;2022-11-25T08:26:01;1.95;;;1.00;;
50543;SDS011;41176;44.032;20.900;2022-11-25T08:28:31;3.17;;;2.15;;
50543;SDS011;41176;44.032;20.900;2022-11-25T08:31:01;4.53;;;2.50;;
50543;SDS011;41176;44.032;20.900;2022-11-25T08:33:31;3.47;;;2.15;;
50543;SDS011;41176;44.032;20.900;2022-11-25T08:35:57;2.53;;;1.52;;
50543;SDS011;41176;44.032;20.900;2022-11-25T08:38:23;2.50;;;1.73;;
50543;SDS011;41176;44.032;20.900;2022-11-25T08:40:50;1.42;;;1.00;;
50543;SDS011;41176;44.032;20.900;2022-11-25T08:43:16;3.08;;;1.17;;
50543;SDS011;41176;44.032;20.900;2022-11-25T08:45:42;1.45;;;0.63;;
50543;SDS011;41176;44.032;20.900;2022-11-25T08:48:08;0.95;;;0.63;;
50543;SDS011;41176;44.032;20.900;2022-11-25T08:50:34;3.42;;;1.23;;
50543;SDS011;41176;44.032;20.900;2022-11-25T08:53:00;0.63;;;0.43;;
50543;SDS011;41176;44.032;20.900;2022-11-25T08:55:26;1.75;;;0.65;;
50543;SDS011;41176;44.032;20.900;2022-11-25T08:57:53;1.70;;;1.13;;
50543;SDS011;41176;44.032;20.900;2022-11-25T09:00:19;1.08;;;0.43;;
50543;SDS011;41176;44.032;20.900;2022-11-25T09:02:46;2.13;;;1.15;;
50543;SDS011;41176;44.032;20.900;2022-11-25T09:05:13;1.17;;;0.70;;
50543;SDS011;41176;44.032;20.900;2022-11-25T09:07:40;3.28;;;1.05;;
50543;SDS011;41176;44.032;20.900;2022-11-25T09:10:07;0.73;;;0.35;;
50543;SDS011;41176;44.032;20.900;2022-11-25T09:12:37;2.55;;;0.93;;
50543;SDS011;41176;44.032;20.900;2022-11-25T09:15:03;1.55;;;0.50;;
50543;SDS011;41176;44.032;20.900;2022-11-25T09:17:30;0.93;;;0.55;;
50543;SDS011;41176;44.032;20.900;2022-11-25T09:19:55;1.33;;;0.70;;
50543;SDS011;41176;44.032;20.900;2022-11-25T09:22:21;1.35;;;0.88;;
50543;SDS011;41176;44.032;20.900;2022-11-25T09:24:47;3.10;;;1.58;;
50543;SDS011;41176;44.032;20.900;2022-11-25T09:27:13;1.40;;;0.77;;
50543;SDS011;41176;44.032;20.900;2022-11-25T09:29:39;1.52;;;0.80;;
50543;SDS011;41176;44.032;20.900;2022-11-25T09:32:04;0.82;;;0.40;;
50543;SDS011;41176;44.032;20.900;2022-11-25T09:34:30;3.58;;;1.45;;
50543;SDS011;41176;44.032;20.900;2022-11-25T09:36:56;3.88;;;1.83;;
50543;SDS011;41176;44.032;20.900;2022-11-25T09:39:22;1.35;;;0.60;;
50543;SDS011;41176;44.032;20.900;2022-11-25T09:45:09;1.67;;;0.82;;
50543;SDS011;41176;44.032;20.900;2022-11-25T09:56:20;3.00;;;1.30;;
50543;SDS011;41176;44.032;20.900;2022-11-25T09:59:10;6.60;;;2.03;;
50543;SDS011;41176;44.032;20.900;2022-11-25T10:01:48;1.70;;;0.88;;
50543;SDS011;41176;44.032;20.900;2022-11-25T10:04:38;0.47;;;0.32;;
50543;SDS011;41176;44.032;20.900;2022-11-25T10:07:20;0.52;;;0.40;;
50543;SDS011;41176;44.032;20.900;2022-11-25T10:10:13;1.75;;;1.42;;
50543;SDS011;41176;44.032;20.900;2022-11-25T10:12:48;1.75;;;1.02;;
50543;SDS011;41176;44.032;20.900;2022-11-25T10:15:17;0.35;;;0.20;;
50543;SDS011;41176;44.032;20.900;2022-11-25T10:17:54;2.30;;;1.38;;
50543;SDS011;41176;44.032;20.900;2022-11-25T10:20:27;2.63;;;1.02;;
50543;SDS011;41176;44.032;20.900;2022-11-25T10:23:01;4.60;;;1.05;;
50543;SDS011;41176;44.032;20.900;2022-11-25T10:25:32;2.53;;;1.27;;
50543;SDS011;41176;44.032;20.900;2022-11-25T10:28:19;2.97;;;1.33;;
50543;SDS011;41176;44.032;20.900;2022-11-25T10:30:48;3.03;;;1.40;;
50543;SDS011;41176;44.032;20.900;2022-11-25T10:33:55;0.73;;;0.38;;
50543;SDS011;41176;44.032;20.900;2022-11-25T10:36:25;0.77;;;0.57;;
50543;SDS011;41176;44.032;20.900;2022-11-25T10:44:26;4.28;;;0.93;;
50543;SDS011;41176;44.032;20.900;2022-11-25T10:47:04;1.80;;;0.95;;
50543;SDS011;41176;44.032;20.900;2022-11-25T10:52:25;1.73;;;0.70;;
50543;SDS011;41176;44.032;20.900;2022-11-25T10:54:55;1.50;;;0.52;;
50543;SDS011;41176;44.032;20.900;2022-11-25T10:57:49;2.00;;;0.90;;
50543;SDS011;41176;44.032;20.900;2022-11-25T11:02:52;1.95;;;1.00;;
50543;SDS011;41176;44.032;20.900;2022-11-25T11:08:14;1.58;;;0.57;;
50543;SDS011;41176;44.032;20.900;2022-11-25T11:10:46;2.60;;;1.23;;
50543;SDS011;41176;44.032;20.900;2022-11-25T11:13:32;3.22;;;1.63;;
50543;SDS011;41176;44.032;20.900;2022-11-25T11:15:58;2.28;;;1.08;;
50543;SDS011;41176;44.032;20.900;2022-11-25T11:18:25;4.05;;;1.65;;
50543;SDS011;41176;44.032;20.900;2022-11-25T11:20:54;2.03;;;1.00;;
50543;SDS011;41176;44.032;20.900;2022-11-25T11:23:24;2.33;;;1.00;;
50543;SDS011;41176;44.032;20.900;2022-11-25T11:26:03;2.97;;;1.35;;
50543;SDS011;41176;44.032;20.900;2022-11-25T11:31:01;3.33;;;1.25;;
50543;SDS011;41176;44.032;20.900;2022-11-25T11:50:38;2.88;;;1.15;;
50543;SDS011;41176;44.032;20.900;2022-11-25T12:03:54;1.50;;;1.02;;
50543;SDS011;41176;44.032;20.900;2022-11-25T12:06:40;2.40;;;1.10;;
50543;SDS011;41176;44.032;20.900;2022-11-25T12:09:14;2.72;;;1.38;;
50543;SDS011;41176;44.032;20.900;2022-11-25T12:11:45;4.20;;;1.23;;
50543;SDS011;41176;44.032;20.900;2022-11-25T12:14:34;1.80;;;0.90;;
50543;SDS011;41176;44.032;20.900;2022-11-25T12:17:12;2.08;;;1.17;;
50543;SDS011;41176;44.032;20.900;2022-11-25T12:25:03;2.22;;;1.15;;
50543;SDS011;41176;44.032;20.900;2022-11-25T12:27:32;1.83;;;1.00;;
50543;SDS011;41176;44.032;20.900;2022-11-25T12:30:29;1.60;;;0.73;;
50543;SDS011;41176;44.032;20.900;2022-11-25T12:33:22;1.48;;;0.77;;
50543;SDS011;41176;44.032;20.900;2022-11-25T12:41:22;2.88;;;0.90;;
50543;SDS011;41176;44.032;20.900;2022-11-25T12:46:43;2.03;;;1.23;;
50543;SDS011;41176;44.032;20.900;2022-11-25T12:49:20;3.40;;;1.05;;
50543;SDS011;41176;44.032;20.900;2022-11-25T12:55:10;2.20;;;1.33;;
50543;SDS011;41176;44.032;20.900;2022-11-25T13:15:05;2.35;;;1.17;;
50543;SDS011;41176;44.032;20.900;2022-11-25T13:17:42;2.83;;;1.50;;
50543;SDS011;41176;44.032;20.900;2022-11-25T13:34:07;2.47;;;1.75;;
50543;SDS011;41176;44.032;20.900;2022-11-25T13:36:46;5.55;;;2.53;;
50543;SDS011;41176;44.032;20.900;2022-11-25T13:39:18;5.28;;;2.60;;
50543;SDS011;41176;44.032;20.900;2022-11-25T13:42:00;2.83;;;1.80;;
50543;SDS011;41176;44.032;20.900;2022-11-25T13:44:50;10.73;;;4.70;;
50543;SDS011;41176;44.032;20.900;2022-11-25T13:49:53;13.43;;;6.75;;
50543;SDS011;41176;44.032;20.900;2022-11-25T13:54:53;3.00;;;1.35;;
50543;SDS011;41176;44.032;20.900;2022-11-25T14:02:33;3.03;;;1.50;;
50543;SDS011;41176;44.032;20.900;2022-11-25T14:05:03;5.82;;;2.78;;
50543;SDS011;41176;44.032;20.900;2022-11-25T14:08:23;3.45;;;2.00;;
50543;SDS011;41176;44.032;20.900;2022-11-25T14:16:45;3.08;;;1.60;;
50543;SDS011;41176;44.032;20.900;2022-11-25T14:22:39;5.18;;;1.95;;
50543;SDS011;41176;44.032;20.900;2022-11-25T14:25:23;6.05;;;3.05;;
50543;SDS011;41176;44.032;20.900;2022-11-25T14:31:04;9.05;;;3.95;;
50543;SDS011;41176;44.032;20.900;2022-11-25T14:33:37;7.78;;;5.03;;
50543;SDS011;41176;44.032;20.900;2022-11-25T14:36:17;9.95;;;3.80;;
50543;SDS011;41176;44.032;20.900;2022-11-25T14:38:54;4.40;;;2.92;;
50543;SDS011;41176;44.032;20.900;2022-11-25T14:41:40;6.60;;;3.33;;
50543;SDS011;41176;44.032;20.900;2022-11-25T14:44:19;5.18;;;2.85;;
50543;SDS011;41176;44.032;20.900;2022-11-25T14:46:53;3.50;;;2.22;;
50543;SDS011;41176;44.032;20.900;2022-11-25T14:49:21;5.05;;;2.88;;
50543;SDS011;41176;44.032;20.900;2022-11-25T14:51:47;8.25;;;2.80;;
50543;SDS011;41176;44.032;20.900;2022-11-25T14:54:15;5.28;;;3.38;;
50543;SDS011;41176;44.032;20.900;2022-11-25T14:56:42;4.90;;;3.40;;
50543;SDS011;41176;44.032;20.900;2022-11-25T14:59:09;5.97;;;3.88;;
50543;SDS011;41176;44.032;20.900;2022-11-25T15:01:36;7.63;;;4.93;;
50543;SDS011;41176;44.032;20.900;2022-11-25T15:04:04;10.30;;;5.47;;
50543;SDS011;41176;44.032;20.900;2022-11-25T15:06:39;5.68;;;4.32;;
50543;SDS011;41176;44.032;20.900;2022-11-25T15:09:25;6.20;;;3.30;;
50543;SDS011;41176;44.032;20.900;2022-11-25T15:12:02;5.00;;;2.90;;
50543;SDS011;41176;44.032;20.900;2022-11-25T15:14:33;4.15;;;2.42;;
50543;SDS011;41176;44.032;20.900;2022-11-25T15:17:34;10.73;;;3.30;;
50543;SDS011;41176;44.032;20.900;2022-11-25T15:19:55;11.60;;;5.50;;
50543;SDS011;41176;44.032;20.900;2022-11-25T15:22:23;6.97;;;2.90;;
50543;SDS011;41176;44.032;20.900;2022-11-25T15:24:50;5.82;;;4.15;;
50543;SDS011;41176;44.032;20.900;2022-11-25T15:29:49;8.82;;;5.78;;
50543;SDS011;41176;44.032;20.900;2022-11-25T15:32:21;11.27;;;5.57;;
50543;SDS011;41176;44.032;20.900;2022-11-25T15:34:50;10.48;;;5.78;;
50543;SDS011;41176;44.032;20.900;2022-11-25T15:37:18;9.75;;;5.30;;
50543;SDS011;41176;44.032;20.900;2022-11-25T15:39:44;15.82;;;7.05;;
50543;SDS011;41176;44.032;20.900;2022-11-25T15:42:23;16.23;;;6.88;;
50543;SDS011;41176;44.032;20.900;2022-11-25T15:44:55;14.00;;;6.93;;
50543;SDS011;41176;44.032;20.900;2022-11-25T15:47:29;12.80;;;5.60;;
50543;SDS011;41176;44.032;20.900;2022-11-25T15:50:20;9.65;;;4.47;;
50543;SDS011;41176;44.032;20.900;2022-11-25T15:52:49;8.95;;;4.95;;
50543;SDS011;41176;44.032;20.900;2022-11-25T15:55:30;11.32;;;5.45;;
50543;SDS011;41176;44.032;20.900;2022-11-25T15:58:04;6.05;;;5.15;;
50543;SDS011;41176;44.032;20.900;2022-11-25T16:00:36;7.20;;;4.60;;
50543;SDS011;41176;44.032;20.900;2022-11-25T16:03:02;8.35;;;5.97;;
50543;SDS011;41176;44.032;20.900;2022-11-25T16:05:50;12.00;;;8.52;;
50543;SDS011;41176;44.032;20.900;2022-11-25T16:08:33;9.95;;;5.82;;
50543;SDS011;41176;44.032;20.900;2022-11-25T16:11:11;6.55;;;5.05;;
50543;SDS011;41176;44.032;20.900;2022-11-25T16:13:41;8.63;;;4.35;;
50543;SDS011;41176;44.032;20.900;2022-11-25T16:18:52;12.70;;;8.35;;
50543;SDS011;41176;44.032;20.900;2022-11-25T16:26:34;15.30;;;9.18;;
50543;SDS011;41176;44.032;20.900;2022-11-25T16:29:29;15.95;;;6.90;;
50543;SDS011;41176;44.032;20.900;2022-11-25T16:32:15;23.30;;;10.68;;
50543;SDS011;41176;44.032;20.900;2022-11-25T16:34:45;24.98;;;11.77;;
50543;SDS011;41176;44.032;20.900;2022-11-25T16:37:11;22.25;;;11.75;;
50543;SDS011;41176;44.032;20.900;2022-11-25T16:39:36;16.92;;;10.30;;
50543;SDS011;41176;44.032;20.900;2022-11-25T16:42:03;13.15;;;8.55;;
50543;SDS011;41176;44.032;20.900;2022-11-25T16:44:30;17.20;;;8.80;;
50543;SDS011;41176;44.032;20.900;2022-11-25T16:46:57;10.65;;;5.40;;
50543;SDS011;41176;44.032;20.900;2022-11-25T16:49:24;19.75;;;8.43;;
50543;SDS011;41176;44.032;20.900;2022-11-25T16:51:50;19.02;;;8.43;;
50543;SDS011;41176;44.032;20.900;2022-11-25T16:54:17;17.08;;;9.05;;
50543;SDS011;41176;44.032;20.900;2022-11-25T16:56:44;12.52;;;7.35;;
50543;SDS011;41176;44.032;20.900;2022-11-25T16:59:17;18.52;;;9.50;;
50543;SDS011;41176;44.032;20.900;2022-11-25T17:01:52;20.58;;;9.57;;
50543;SDS011;41176;44.032;20.900;2022-11-25T17:04:18;24.52;;;11.50;;
50543;SDS011;41176;44.032;20.900;2022-11-25T17:06:44;15.75;;;9.88;;
50543;SDS011;41176;44.032;20.900;2022-11-25T17:09:10;14.85;;;9.55;;
50543;SDS011;41176;44.032;20.900;2022-11-25T17:11:40;13.45;;;8.65;;
50543;SDS011;41176;44.032;20.900;2022-11-25T17:14:13;14.18;;;8.35;;